Krupp, Washington
Current Conditions -  °F | °C
As of 11:52 AM on Sunday 23 Nov 2014 (Local Time) from KMWH Reporting Station
Clear Clear  
Wind Chill: 42°   Ceiling: Unl
Heat Index: 48°   Visibility: 10mi
Dew Point: 37°   Wind: 17mph
Humidity: 66%   Direction: 200°SSW
Pressure: 30.03"   Gusts: NA
Location:  47.3463°N, 119.014°W
Report Text: KMWH 231952Z 20015KT 10SM CLR 09/03 A3003 RMK AO2 SLP175 T00890028
Loading
Personal Weather Stations






























Interactive Weather Map New forecast layout! Learn more

10-Day Weather Forecast

Advertisements
Track Severe Weather on mobile